createdAt,value
2017-06-29T00:00:30.967Z,988.86
2017-06-29T00:01:30.947Z,988.87
2017-06-29T00:02:30.933Z,988.83
2017-06-29T00:03:30.918Z,988.83
2017-06-29T00:04:30.902Z,988.82
2017-06-29T00:05:30.885Z,988.83
2017-06-29T00:06:30.873Z,988.82
2017-06-29T00:07:30.859Z,988.83
2017-06-29T00:08:30.848Z,988.88
2017-06-29T00:09:30.829Z,988.84
2017-06-29T00:10:30.815Z,988.89
2017-06-29T00:11:30.799Z,988.86
2017-06-29T00:12:30.785Z,988.89
2017-06-29T00:13:30.769Z,988.86
2017-06-29T00:14:30.753Z,988.85
2017-06-29T00:15:30.738Z,988.83
2017-06-29T00:16:30.721Z,988.8
2017-06-29T00:17:30.711Z,988.81
2017-06-29T00:18:30.700Z,988.79
2017-06-29T00:19:30.680Z,988.77
2017-06-29T00:20:30.668Z,988.76
2017-06-29T00:21:30.648Z,988.74
2017-06-29T00:22:30.636Z,988.71
2017-06-29T00:23:30.619Z,988.71
2017-06-29T00:24:30.606Z,988.71
2017-06-29T00:25:30.587Z,988.73
2017-06-29T00:26:30.571Z,988.71
2017-06-29T00:27:30.557Z,988.72
2017-06-29T00:28:30.541Z,988.7
2017-06-29T00:29:30.525Z,988.7
2017-06-29T00:30:30.520Z,988.68
2017-06-29T00:31:30.499Z,988.67
2017-06-29T00:32:30.486Z,988.65
2017-06-29T00:33:30.470Z,988.63
2017-06-29T00:34:30.458Z,988.62
2017-06-29T00:35:30.439Z,988.64
2017-06-29T00:36:30.429Z,988.65
2017-06-29T00:37:30.411Z,988.66
2017-06-29T00:38:30.418Z,988.59
2017-06-29T00:39:30.377Z,988.61
2017-06-29T00:40:30.361Z,988.6
2017-06-29T00:41:30.344Z,988.59
2017-06-29T00:42:30.330Z,988.6
2017-06-29T00:43:30.315Z,988.58
2017-06-29T00:44:30.299Z,988.59
2017-06-29T00:45:30.289Z,988.57
2017-06-29T00:46:30.268Z,988.55
2017-06-29T00:47:30.250Z,988.56
2017-06-29T00:48:30.240Z,988.53
2017-06-29T00:49:30.223Z,988.54
2017-06-29T00:50:30.210Z,988.53
2017-06-29T00:51:30.200Z,988.57
2017-06-29T00:52:30.179Z,988.55
2017-06-29T00:53:30.168Z,988.61
2017-06-29T00:54:30.150Z,988.59
2017-06-29T00:55:30.133Z,988.6
2017-06-29T00:56:30.117Z,988.56
2017-06-29T00:57:30.101Z,988.55
2017-06-29T00:58:30.088Z,988.53
2017-06-29T00:59:30.072Z,988.54
2017-06-29T01:00:30.057Z,988.56
2017-06-29T01:01:30.040Z,988.57
2017-06-29T01:02:30.025Z,988.53
2017-06-29T01:03:30.011Z,988.58
2017-06-29T01:04:30.050Z,988.58
2017-06-29T01:05:29.979Z,988.58
2017-06-29T01:06:29.968Z,988.58
2017-06-29T01:07:29.949Z,988.59
2017-06-29T01:08:29.933Z,988.58
2017-06-29T01:09:29.918Z,988.6
2017-06-29T01:10:29.909Z,988.61
2017-06-29T01:11:29.887Z,988.6
2017-06-29T01:12:29.878Z,988.62
2017-06-29T01:13:29.859Z,988.63
2017-06-29T01:14:29.849Z,988.64
2017-06-29T01:15:29.833Z,988.65
2017-06-29T01:16:29.808Z,988.67
2017-06-29T01:17:29.795Z,988.66
2017-06-29T01:18:29.780Z,988.66
2017-06-29T01:19:29.771Z,988.64
2017-06-29T01:20:29.750Z,988.63
2017-06-29T01:21:29.738Z,988.56
2017-06-29T01:22:29.719Z,988.54
2017-06-29T01:23:29.709Z,988.53
2017-06-29T01:24:29.688Z,988.53
2017-06-29T01:25:29.677Z,988.57
2017-06-29T01:26:29.658Z,988.56
2017-06-29T01:27:29.648Z,988.55
2017-06-29T01:28:29.638Z,988.6
2017-06-29T01:29:29.617Z,988.56
2017-06-29T01:30:29.595Z,988.55
2017-06-29T01:31:29.583Z,988.54
2017-06-29T01:32:29.568Z,988.53
2017-06-29T01:33:29.549Z,988.57
2017-06-29T01:34:29.539Z,988.56
2017-06-29T01:35:29.518Z,988.56
2017-06-29T01:36:29.502Z,988.52
2017-06-29T01:37:29.489Z,988.52
2017-06-29T01:38:29.478Z,988.49
2017-06-29T01:39:29.457Z,988.46
2017-06-29T01:40:29.446Z,988.48
2017-06-29T01:41:29.422Z,988.42
2017-06-29T01:42:29.407Z,988.44
2017-06-29T01:43:29.397Z,988.46
2017-06-29T01:44:29.375Z,988.45
2017-06-29T01:45:29.365Z,988.44
2017-06-29T01:46:29.349Z,988.43
2017-06-29T01:47:29.335Z,988.44
2017-06-29T01:48:29.320Z,988.43
2017-06-29T01:49:29.301Z,988.42
2017-06-29T01:50:29.287Z,988.42
2017-06-29T01:51:29.268Z,988.46
2017-06-29T01:52:29.252Z,988.46
2017-06-29T01:53:29.239Z,988.46
2017-06-29T01:54:29.223Z,988.44
2017-06-29T01:55:29.207Z,988.45
2017-06-29T01:56:29.197Z,988.47
2017-06-29T01:57:29.176Z,988.46
2017-06-29T01:58:29.166Z,988.46
2017-06-29T01:59:29.146Z,988.44
2017-06-29T02:00:29.131Z,988.42
2017-06-29T02:01:29.117Z,988.41
2017-06-29T02:02:29.097Z,988.36
2017-06-29T02:03:29.082Z,988.42
2017-06-29T02:04:29.069Z,988.42
2017-06-29T02:05:29.053Z,988.39
2017-06-29T02:06:29.039Z,988.39
2017-06-29T02:07:29.021Z,988.38
2017-06-29T02:08:29.010Z,988.39
2017-06-29T02:09:28.989Z,988.4
2017-06-29T02:10:28.977Z,988.45
2017-06-29T02:11:28.957Z,988.46
2017-06-29T02:12:28.955Z,988.49
2017-06-29T02:13:28.928Z,988.49
2017-06-29T02:14:28.919Z,988.51
2017-06-29T02:15:28.897Z,988.49
2017-06-29T02:16:28.878Z,988.49
2017-06-29T02:17:28.866Z,988.44
2017-06-29T02:18:28.848Z,988.46
2017-06-29T02:19:28.832Z,988.48
2017-06-29T02:20:28.817Z,988.49
2017-06-29T02:21:28.804Z,988.49
2017-06-29T02:22:28.787Z,988.5
2017-06-29T02:23:28.772Z,988.5
2017-06-29T02:24:28.762Z,988.52
2017-06-29T02:25:28.741Z,988.52
2017-06-29T02:26:28.728Z,988.52
2017-06-29T02:27:28.708Z,988.5
2017-06-29T02:28:28.696Z,988.55
2017-06-29T02:29:28.679Z,988.54
2017-06-29T02:30:28.660Z,988.55
2017-06-29T02:31:28.646Z,988.53
2017-06-29T02:32:28.628Z,988.56
2017-06-29T02:33:28.613Z,988.56
2017-06-29T02:34:28.594Z,988.58
2017-06-29T02:35:28.583Z,988.57
2017-06-29T02:36:28.567Z,988.54
2017-06-29T02:37:28.557Z,988.52
2017-06-29T02:38:28.532Z,988.5
2017-06-29T02:39:28.529Z,988.49
2017-06-29T02:40:28.510Z,988.46
2017-06-29T02:41:28.488Z,988.46
2017-06-29T02:42:28.469Z,988.45
2017-06-29T02:43:28.457Z,988.43
2017-06-29T02:44:28.439Z,988.47
2017-06-29T02:45:28.430Z,988.48
2017-06-29T02:46:28.407Z,988.5
2017-06-29T02:47:28.391Z,988.53
2017-06-29T02:48:28.379Z,988.52
2017-06-29T02:49:28.360Z,988.52
2017-06-29T02:50:28.351Z,988.51
2017-06-29T02:51:28.331Z,988.51
2017-06-29T02:52:28.321Z,988.52
2017-06-29T02:53:28.300Z,988.53
2017-06-29T02:54:28.290Z,988.5
2017-06-29T02:55:28.267Z,988.49
2017-06-29T02:56:28.249Z,988.47
2017-06-29T02:57:28.240Z,988.51
2017-06-29T02:58:28.220Z,988.49
2017-06-29T02:59:28.205Z,988.52
2017-06-29T03:00:28.190Z,988.49
2017-06-29T03:01:28.177Z,988.51
2017-06-29T03:02:28.160Z,988.53
2017-06-29T03:03:28.140Z,988.51
2017-06-29T03:04:28.126Z,988.49
2017-06-29T03:05:28.110Z,988.54
2017-06-29T03:06:28.102Z,988.56
2017-06-29T03:07:28.080Z,988.56
2017-06-29T03:08:28.071Z,988.56
2017-06-29T03:09:28.046Z,988.57
2017-06-29T03:10:28.030Z,988.56
2017-06-29T03:11:28.021Z,988.57
2017-06-29T03:12:27.999Z,988.58
2017-06-29T03:13:27.985Z,988.6
2017-06-29T03:14:27.971Z,988.58
2017-06-29T03:15:27.950Z,988.57
2017-06-29T03:16:27.941Z,988.58
2017-06-29T03:17:27.922Z,988.6
2017-06-29T03:18:27.910Z,988.57
2017-06-29T03:19:27.892Z,988.63
2017-06-29T03:20:27.876Z,988.64
2017-06-29T03:21:27.860Z,988.65
2017-06-29T03:22:27.841Z,988.65
2017-06-29T03:23:27.840Z,988.65
2017-06-29T03:24:27.813Z,988.67
2017-06-29T03:25:27.799Z,988.65
2017-06-29T03:26:27.811Z,988.65
2017-06-29T03:27:27.763Z,988.62
2017-06-29T03:28:27.750Z,988.61
2017-06-29T03:29:27.733Z,988.63
2017-06-29T03:30:27.720Z,988.64
2017-06-29T03:31:27.712Z,988.64
2017-06-29T03:32:27.685Z,988.65
2017-06-29T03:33:27.667Z,988.67
2017-06-29T03:34:27.651Z,988.64
2017-06-29T03:35:27.636Z,988.64
2017-06-29T03:36:27.622Z,988.6
2017-06-29T03:37:27.604Z,988.63
2017-06-29T03:38:27.590Z,988.6
2017-06-29T03:39:27.578Z,988.61
2017-06-29T03:40:27.563Z,988.56
2017-06-29T03:41:27.542Z,988.58
2017-06-29T03:42:27.526Z,988.55
2017-06-29T03:43:27.511Z,988.54
2017-06-29T03:44:27.497Z,988.53
2017-06-29T03:45:27.479Z,988.54
2017-06-29T03:46:27.474Z,988.53
2017-06-29T03:47:27.451Z,988.53
2017-06-29T03:48:27.441Z,988.52
2017-06-29T03:49:27.419Z,988.52
2017-06-29T03:50:27.400Z,988.49
2017-06-29T03:51:27.386Z,988.5
2017-06-29T03:52:27.371Z,988.5
2017-06-29T03:53:27.352Z,988.52
2017-06-29T03:54:27.340Z,988.53
2017-06-29T03:55:27.320Z,988.53
2017-06-29T03:56:27.312Z,988.53
2017-06-29T03:57:27.290Z,988.53
2017-06-29T03:58:27.283Z,988.52
2017-06-29T03:59:27.259Z,988.51
2017-06-29T04:00:27.247Z,988.49
2017-06-29T04:01:27.228Z,988.51
2017-06-29T04:02:27.213Z,988.52
2017-06-29T04:03:27.199Z,988.52
2017-06-29T04:04:27.181Z,988.51
2017-06-29T04:05:27.168Z,988.49
2017-06-29T04:06:27.149Z,988.47
2017-06-29T04:07:27.137Z,988.44
2017-06-29T04:08:27.120Z,988.44
2017-06-29T04:09:27.100Z,988.42
2017-06-29T04:10:27.090Z,988.4
2017-06-29T04:11:27.072Z,988.39
2017-06-29T04:12:27.054Z,988.37
2017-06-29T04:13:27.040Z,988.36
2017-06-29T04:14:27.032Z,988.36
2017-06-29T04:15:27.013Z,988.33
2017-06-29T04:16:26.989Z,988.36
2017-06-29T04:17:26.977Z,988.34
2017-06-29T04:18:26.962Z,988.34
2017-06-29T04:19:26.949Z,988.34
2017-06-29T04:20:26.938Z,988.34
2017-06-29T04:21:26.922Z,988.38
2017-06-29T04:22:26.900Z,988.33
2017-06-29T04:23:26.880Z,988.38
2017-06-29T04:24:26.873Z,988.38
2017-06-29T04:25:26.850Z,988.41
2017-06-29T04:26:26.836Z,988.43
2017-06-29T04:27:26.820Z,988.44
2017-06-29T04:28:26.806Z,988.45
2017-06-29T04:29:26.789Z,988.48
2017-06-29T04:30:26.775Z,988.47
2017-06-29T04:31:26.759Z,988.5
2017-06-29T04:32:26.739Z,988.47
2017-06-29T04:33:26.724Z,988.48
2017-06-29T04:34:26.707Z,988.5
2017-06-29T04:35:26.691Z,988.53
2017-06-29T04:36:26.678Z,988.51
2017-06-29T04:37:26.659Z,988.51
2017-06-29T04:38:26.660Z,988.53
2017-06-29T04:39:26.632Z,988.51
2017-06-29T04:40:26.619Z,988.52
2017-06-29T04:41:26.600Z,988.49
2017-06-29T04:42:26.591Z,988.48
2017-06-29T04:43:26.580Z,988.5
2017-06-29T04:44:26.551Z,988.47
2017-06-29T04:45:26.537Z,988.54
2017-06-29T04:46:26.525Z,988.52
2017-06-29T04:47:26.508Z,988.5
2017-06-29T04:48:26.490Z,988.5
2017-06-29T04:49:26.482Z,988.46
2017-06-29T04:50:26.463Z,988.44
2017-06-29T04:51:26.440Z,988.48
2017-06-29T04:52:26.432Z,988.42
2017-06-29T04:53:26.414Z,988.45
2017-06-29T04:54:26.403Z,988.41
2017-06-29T04:55:26.383Z,988.48
2017-06-29T04:56:26.362Z,988.46
2017-06-29T04:57:26.347Z,988.52
2017-06-29T04:58:26.332Z,988.53
2017-06-29T04:59:26.317Z,988.52
2017-06-29T05:00:26.302Z,988.6
2017-06-29T05:01:26.282Z,988.59
2017-06-29T05:02:26.279Z,988.58
2017-06-29T05:03:26.253Z,988.63
2017-06-29T05:04:26.242Z,988.64
2017-06-29T05:05:26.218Z,988.58
2017-06-29T05:06:26.212Z,988.6
2017-06-29T05:07:26.193Z,988.61
2017-06-29T05:08:26.175Z,988.61
2017-06-29T05:09:26.162Z,988.6
2017-06-29T05:10:26.143Z,988.62
2017-06-29T05:11:26.127Z,988.61
2017-06-29T05:12:26.112Z,988.62
2017-06-29T05:13:26.100Z,988.66
2017-06-29T05:14:26.087Z,988.63
2017-06-29T05:15:26.064Z,988.66
2017-06-29T05:16:26.059Z,988.66
2017-06-29T05:17:26.033Z,988.66
2017-06-29T05:18:26.016Z,988.66
2017-06-29T05:19:26.005Z,988.7
2017-06-29T05:20:25.989Z,988.7
2017-06-29T05:21:25.973Z,988.73
2017-06-29T05:22:25.963Z,988.75
2017-06-29T05:23:25.946Z,988.72
2017-06-29T05:24:25.927Z,988.78
2017-06-29T05:25:25.910Z,988.78
2017-06-29T05:26:25.893Z,988.8
2017-06-29T05:27:25.883Z,988.79
2017-06-29T05:28:25.863Z,988.77
2017-06-29T05:29:25.853Z,988.79
2017-06-29T05:30:25.830Z,988.79
2017-06-29T05:31:25.820Z,988.8
2017-06-29T05:32:25.806Z,988.75
2017-06-29T05:33:25.785Z,988.8
2017-06-29T05:34:25.774Z,988.79
2017-06-29T05:35:25.754Z,988.78
2017-06-29T05:36:25.739Z,988.78
2017-06-29T05:37:25.722Z,988.77
2017-06-29T05:38:25.710Z,988.82
2017-06-29T05:39:25.698Z,988.78
2017-06-29T05:40:25.681Z,988.76
2017-06-29T05:41:25.665Z,988.75
2017-06-29T05:42:25.646Z,988.77
2017-06-29T05:43:25.634Z,988.71
2017-06-29T05:44:25.616Z,988.71
2017-06-29T05:45:25.605Z,988.67
2017-06-29T05:46:25.593Z,988.66
2017-06-29T05:47:25.573Z,988.68
2017-06-29T05:48:25.562Z,988.71
2017-06-29T05:49:25.549Z,988.71
2017-06-29T05:50:25.527Z,988.74
2017-06-29T05:51:25.516Z,988.79
2017-06-29T05:52:25.500Z,988.79
2017-06-29T05:53:25.484Z,988.78
2017-06-29T05:54:25.475Z,988.77
2017-06-29T05:55:25.454Z,988.76
2017-06-29T05:56:25.443Z,988.78
2017-06-29T05:57:25.426Z,988.78
2017-06-29T05:58:25.414Z,988.77
2017-06-29T05:59:25.395Z,988.75
2017-06-29T06:00:25.385Z,988.76
2017-06-29T06:01:25.365Z,988.76
2017-06-29T06:02:25.356Z,988.8
2017-06-29T06:03:25.344Z,988.8
2017-06-29T06:04:25.331Z,988.83
2017-06-29T06:05:25.321Z,988.85
2017-06-29T06:06:25.296Z,988.86
2017-06-29T06:07:25.278Z,988.85
2017-06-29T06:08:25.265Z,988.83
2017-06-29T06:09:25.250Z,988.82
2017-06-29T06:10:25.238Z,988.82
2017-06-29T06:11:25.225Z,988.8
2017-06-29T06:12:25.215Z,988.8
2017-06-29T06:13:25.203Z,988.82
2017-06-29T06:14:25.182Z,988.83
2017-06-29T06:15:25.174Z,988.78
2017-06-29T06:16:25.155Z,988.79
2017-06-29T06:17:25.145Z,988.77
2017-06-29T06:18:25.129Z,988.77
2017-06-29T06:19:25.147Z,988.72
2017-06-29T06:20:25.099Z,988.76
2017-06-29T06:21:25.092Z,988.79
2017-06-29T06:22:25.077Z,988.75
2017-06-29T06:23:25.055Z,988.78
2017-06-29T06:24:25.045Z,988.78
2017-06-29T06:25:25.027Z,988.81
2017-06-29T06:26:25.014Z,988.82
2017-06-29T06:27:25.005Z,988.84
2017-06-29T06:28:24.982Z,988.84
2017-06-29T06:29:24.966Z,988.83
2017-06-29T06:30:24.956Z,988.81
2017-06-29T06:31:24.937Z,988.82
2017-06-29T06:32:24.925Z,988.85
2017-06-29T06:33:24.914Z,988.85
2017-06-29T06:34:24.896Z,988.82
2017-06-29T06:35:24.884Z,988.82
2017-06-29T06:36:24.871Z,988.84
2017-06-29T06:37:24.854Z,988.86
2017-06-29T06:38:24.841Z,988.85
2017-06-29T06:39:24.830Z,988.82
2017-06-29T06:40:24.815Z,988.84
2017-06-29T06:41:24.800Z,988.86
2017-06-29T06:42:24.788Z,988.85
2017-06-29T06:43:24.788Z,988.84
2017-06-29T06:44:24.764Z,988.94
2017-06-29T06:45:24.747Z,988.9
2017-06-29T06:46:24.735Z,988.94
2017-06-29T06:47:24.723Z,988.93
2017-06-29T06:48:24.704Z,988.95
2017-06-29T06:49:24.691Z,988.96
2017-06-29T06:50:24.675Z,988.93
2017-06-29T06:51:24.662Z,988.93
2017-06-29T06:52:24.651Z,988.92
2017-06-29T06:53:24.635Z,988.92
2017-06-29T06:54:24.622Z,988.95
2017-06-29T06:55:24.614Z,988.89
2017-06-29T06:56:24.597Z,988.97
2017-06-29T06:57:24.589Z,988.92
2017-06-29T06:58:24.573Z,988.91
2017-06-29T06:59:24.555Z,988.97
2017-06-29T07:00:24.539Z,988.97
2017-06-29T07:01:24.527Z,989.02
2017-06-29T07:02:24.517Z,988.99
2017-06-29T07:03:24.503Z,988.98
2017-06-29T07:04:24.491Z,989.02
2017-06-29T07:05:24.483Z,989.05
2017-06-29T07:06:24.460Z,989.09
2017-06-29T07:07:24.454Z,989.05
2017-06-29T07:08:24.432Z,989.12
2017-06-29T07:09:24.425Z,989.13
2017-06-29T07:10:24.421Z,989.11
2017-06-29T07:11:24.394Z,989.1
2017-06-29T07:12:24.384Z,989.12
2017-06-29T07:13:24.371Z,989.12
2017-06-29T07:14:24.354Z,989.14
2017-06-29T07:15:24.345Z,989.18
2017-06-29T07:16:24.335Z,989.15
2017-06-29T07:17:24.325Z,989.18
2017-06-29T07:18:24.303Z,989.16
2017-06-29T07:19:24.296Z,989.19
2017-06-29T07:20:24.292Z,989.13
2017-06-29T07:21:24.263Z,989.16
2017-06-29T07:22:24.252Z,989.16
2017-06-29T07:23:24.239Z,989.15
2017-06-29T07:24:24.228Z,989.13
2017-06-29T07:25:24.213Z,989.13
2017-06-29T07:26:24.202Z,989.16
2017-06-29T07:27:24.192Z,989.15
2017-06-29T07:28:24.178Z,989.14
2017-06-29T07:29:24.165Z,989.16
2017-06-29T07:30:24.145Z,989.14
2017-06-29T07:31:24.133Z,989.18
2017-06-29T07:32:24.119Z,989.15
2017-06-29T07:33:24.113Z,989.12
2017-06-29T07:34:24.105Z,989.19
2017-06-29T07:35:24.083Z,989.13
2017-06-29T07:36:24.072Z,989.14
2017-06-29T07:37:24.058Z,989.17
2017-06-29T07:38:24.042Z,989.16
2017-06-29T07:39:24.029Z,989.16
2017-06-29T07:40:24.014Z,989.16
2017-06-29T07:41:24.003Z,989.21
2017-06-29T07:42:23.988Z,989.17
2017-06-29T07:43:23.975Z,989.21
2017-06-29T07:44:23.964Z,989.2
2017-06-29T07:45:23.952Z,989.23
2017-06-29T07:46:23.948Z,989.21
2017-06-29T07:47:23.927Z,989.25
2017-06-29T07:48:23.914Z,989.23
2017-06-29T07:49:23.905Z,989.25
2017-06-29T07:50:23.882Z,989.23
2017-06-29T07:51:23.873Z,989.23
2017-06-29T07:52:23.865Z,989.25
2017-06-29T07:53:23.841Z,989.23
2017-06-29T07:54:23.832Z,989.26
2017-06-29T07:55:23.813Z,989.3
2017-06-29T07:56:23.804Z,989.28
2017-06-29T07:57:23.789Z,989.29
2017-06-29T07:58:23.774Z,989.34
2017-06-29T07:59:23.763Z,989.35
2017-06-29T08:00:23.752Z,989.35
2017-06-29T08:01:23.741Z,989.38
2017-06-29T08:02:23.722Z,989.39
2017-06-29T08:03:23.712Z,989.41
2017-06-29T08:04:23.702Z,989.37
2017-06-29T08:05:23.693Z,989.37
2017-06-29T08:06:23.702Z,989.41
2017-06-29T08:07:23.655Z,989.4
2017-06-29T08:08:23.642Z,989.4
2017-06-29T08:09:23.633Z,989.43
2017-06-29T08:10:23.619Z,989.45
2017-06-29T08:11:23.603Z,989.43
2017-06-29T08:12:23.590Z,989.42
2017-06-29T08:13:23.573Z,989.48
2017-06-29T08:14:23.563Z,989.46
2017-06-29T08:15:23.557Z,989.48
2017-06-29T08:16:23.633Z,989.49
2017-06-29T08:17:23.522Z,989.52
2017-06-29T08:18:23.512Z,989.53
2017-06-29T08:19:23.493Z,989.55
2017-06-29T08:20:23.585Z,989.54
2017-06-29T08:21:23.463Z,989.54
2017-06-29T08:22:23.494Z,989.56
2017-06-29T08:23:23.442Z,989.55
2017-06-29T08:24:23.470Z,989.52
2017-06-29T08:25:23.411Z,989.58
2017-06-29T08:26:23.443Z,989.58
2017-06-29T08:27:23.382Z,989.56
2017-06-29T08:28:23.368Z,989.61
2017-06-29T08:29:23.362Z,989.61
2017-06-29T08:30:23.340Z,989.65
2017-06-29T08:31:23.326Z,989.61
2017-06-29T08:32:23.323Z,989.62
2017-06-29T08:33:23.301Z,989.64
2017-06-29T08:34:23.284Z,989.62
2017-06-29T08:35:23.273Z,989.59
2017-06-29T08:36:23.261Z,989.59
2017-06-29T08:37:23.244Z,989.59
2017-06-29T08:38:23.230Z,989.6
2017-06-29T08:39:23.223Z,989.54
2017-06-29T08:40:23.203Z,989.58
2017-06-29T08:41:23.187Z,989.61
2017-06-29T08:42:23.175Z,989.62
2017-06-29T08:43:23.162Z,989.59
2017-06-29T08:44:23.145Z,989.57
2017-06-29T08:45:23.139Z,989.6
2017-06-29T08:46:23.118Z,989.57
2017-06-29T08:47:23.110Z,989.6
2017-06-29T08:48:23.096Z,989.61
2017-06-29T08:49:23.080Z,989.61
2017-06-29T08:50:23.069Z,989.59
2017-06-29T08:51:23.052Z,989.62
2017-06-29T08:52:23.042Z,989.68
2017-06-29T08:53:23.032Z,989.65
2017-06-29T08:54:23.011Z,989.66
2017-06-29T08:55:23.000Z,989.69
2017-06-29T08:56:22.990Z,989.68
2017-06-29T08:57:22.976Z,989.69
2017-06-29T08:58:22.962Z,989.68
2017-06-29T08:59:22.950Z,989.69
2017-06-29T09:00:22.930Z,989.68
2017-06-29T09:01:22.924Z,989.69
2017-06-29T09:02:22.910Z,989.68
2017-06-29T09:03:22.900Z,989.69
2017-06-29T09:04:22.878Z,989.73
2017-06-29T09:05:22.869Z,989.7
2017-06-29T09:06:22.849Z,989.78
2017-06-29T09:07:22.838Z,989.77
2017-06-29T09:08:22.822Z,989.78
2017-06-29T09:09:22.809Z,989.79
2017-06-29T09:10:22.800Z,989.84
2017-06-29T09:11:22.783Z,989.78
2017-06-29T09:12:22.772Z,989.84
2017-06-29T09:13:22.760Z,989.81
2017-06-29T09:14:22.741Z,989.86
2017-06-29T09:15:22.730Z,989.82
2017-06-29T09:16:22.712Z,989.87
2017-06-29T09:17:22.700Z,989.85
2017-06-29T09:18:22.695Z,989.86
2017-06-29T09:19:22.680Z,989.89
2017-06-29T09:20:22.658Z,989.85
2017-06-29T09:21:22.661Z,989.87
2017-06-29T09:22:22.634Z,989.86
2017-06-29T09:23:22.618Z,989.87
2017-06-29T09:24:22.609Z,989.85
2017-06-29T09:25:22.597Z,989.92
2017-06-29T09:26:22.578Z,989.88
2017-06-29T09:27:22.567Z,989.89
2017-06-29T09:28:22.550Z,989.87
2017-06-29T09:29:22.539Z,989.89
2017-06-29T09:30:22.523Z,989.9
2017-06-29T09:31:22.511Z,989.91
2017-06-29T09:32:22.500Z,989.93
2017-06-29T09:33:22.490Z,989.95
2017-06-29T09:34:22.471Z,989.9
2017-06-29T09:35:22.461Z,989.92
2017-06-29T09:36:22.450Z,989.92
2017-06-29T09:37:22.432Z,989.91
2017-06-29T09:38:22.424Z,989.94
2017-06-29T09:39:22.410Z,989.94
2017-06-29T09:40:22.396Z,989.95
2017-06-29T09:41:22.381Z,989.98
2017-06-29T09:42:22.363Z,989.98
2017-06-29T09:43:22.359Z,989.95
2017-06-29T09:44:22.341Z,989.99
2017-06-29T09:45:22.326Z,989.94
2017-06-29T09:46:22.318Z,989.95
2017-06-29T09:47:22.300Z,989.97
2017-06-29T09:48:22.289Z,990.03
2017-06-29T09:49:22.271Z,989.98
2017-06-29T09:50:22.261Z,989.97
2017-06-29T09:51:22.251Z,990
2017-06-29T09:52:22.237Z,990.02
2017-06-29T09:53:22.219Z,990.04
2017-06-29T09:54:22.211Z,990.04
2017-06-29T09:55:22.199Z,990.01
2017-06-29T09:56:22.188Z,990.06
2017-06-29T09:57:22.170Z,990.02
2017-06-29T09:58:22.159Z,990.07
2017-06-29T09:59:22.147Z,990.09
2017-06-29T10:00:22.128Z,990.05
2017-06-29T10:01:22.119Z,990.14
2017-06-29T10:02:22.100Z,990.06
2017-06-29T10:03:22.089Z,990.08
2017-06-29T10:04:22.079Z,990.09
2017-06-29T10:05:22.069Z,990.13
2017-06-29T10:06:22.057Z,990.08
2017-06-29T10:07:22.042Z,990.09
2017-06-29T10:08:22.018Z,990.13
2017-06-29T10:09:22.009Z,990.14
2017-06-29T10:10:21.997Z,990.15
2017-06-29T10:11:21.981Z,990.16
2017-06-29T10:12:21.971Z,990.18
2017-06-29T10:13:21.961Z,990.13
2017-06-29T10:14:21.962Z,990.19
2017-06-29T10:15:21.929Z,990.17
2017-06-29T10:16:21.911Z,990.17
2017-06-29T10:17:21.898Z,990.21
2017-06-29T10:18:21.892Z,990.16
2017-06-29T10:19:21.879Z,990.2
2017-06-29T10:20:21.859Z,990.18
2017-06-29T10:21:21.851Z,990.24
2017-06-29T10:22:21.838Z,990.21
2017-06-29T10:23:21.825Z,990.17
2017-06-29T10:24:21.806Z,990.2
2017-06-29T10:25:21.801Z,990.23
2017-06-29T10:26:21.790Z,990.19
2017-06-29T10:27:21.770Z,990.18
2017-06-29T10:28:21.760Z,990.21
2017-06-29T10:29:21.745Z,990.23
2017-06-29T10:30:21.729Z,990.19
2017-06-29T10:31:21.728Z,990.22
2017-06-29T10:32:21.704Z,990.25
2017-06-29T10:33:21.695Z,990.21
2017-06-29T10:34:21.678Z,990.29
2017-06-29T10:35:21.673Z,990.24
2017-06-29T10:36:21.657Z,990.24
2017-06-29T10:37:21.640Z,990.26
2017-06-29T10:38:21.630Z,990.24
2017-06-29T10:39:21.619Z,990.29
2017-06-29T10:40:21.600Z,990.27
2017-06-29T10:41:21.591Z,990.23
2017-06-29T10:42:21.585Z,990.31
2017-06-29T10:43:21.564Z,990.32
2017-06-29T10:44:21.554Z,990.38
2017-06-29T10:45:21.544Z,990.29
2017-06-29T10:46:21.523Z,990.36
2017-06-29T10:47:21.511Z,990.35
2017-06-29T10:48:21.496Z,990.36
2017-06-29T10:49:21.482Z,990.32
2017-06-29T10:50:21.483Z,990.38
2017-06-29T10:51:21.459Z,990.37
2017-06-29T10:52:21.444Z,990.38
2017-06-29T10:53:21.429Z,990.39
2017-06-29T10:54:21.418Z,990.4
2017-06-29T10:55:21.410Z,990.37
2017-06-29T10:56:21.402Z,990.28
2017-06-29T10:57:21.378Z,990.37
2017-06-29T10:58:21.372Z,990.32
2017-06-29T10:59:21.350Z,990.48
2017-06-29T11:00:21.351Z,990.42
2017-06-29T11:01:21.333Z,990.41
2017-06-29T11:02:21.322Z,990.35
2017-06-29T11:03:21.309Z,990.31
2017-06-29T11:04:21.289Z,990.35
2017-06-29T11:05:21.274Z,990.35
2017-06-29T11:06:21.369Z,990.35
2017-06-29T11:07:21.250Z,990.37
2017-06-29T11:08:21.240Z,990.35
2017-06-29T11:09:21.226Z,990.4
2017-06-29T11:10:21.268Z,990.41
2017-06-29T11:11:21.199Z,990.39
2017-06-29T11:12:21.185Z,990.39
2017-06-29T11:13:21.173Z,990.4
2017-06-29T11:14:21.167Z,990.48
2017-06-29T11:15:21.150Z,990.52
2017-06-29T11:16:21.138Z,990.45
2017-06-29T11:17:21.121Z,990.51
2017-06-29T11:18:21.110Z,990.53
2017-06-29T11:19:21.095Z,990.53
2017-06-29T11:20:21.088Z,990.57
2017-06-29T11:21:21.071Z,990.54
2017-06-29T11:22:21.061Z,990.52
2017-06-29T11:23:21.050Z,990.54
2017-06-29T11:24:21.029Z,990.57
2017-06-29T11:25:21.018Z,990.5
2017-06-29T11:26:21.008Z,990.5
2017-06-29T11:27:20.997Z,990.57
2017-06-29T11:28:20.980Z,990.51
2017-06-29T11:29:20.969Z,990.56
2017-06-29T11:30:20.958Z,990.6
2017-06-29T11:31:20.942Z,990.5
2017-06-29T11:32:20.940Z,990.57
2017-06-29T11:33:20.924Z,990.57
2017-06-29T11:34:20.912Z,990.62
2017-06-29T11:35:20.892Z,990.61
2017-06-29T11:36:20.878Z,990.6
2017-06-29T11:37:20.864Z,990.62
2017-06-29T11:38:20.850Z,990.67
2017-06-29T11:39:20.838Z,990.65
2017-06-29T11:40:20.827Z,990.63
2017-06-29T11:41:20.815Z,990.63
2017-06-29T11:42:20.799Z,990.68
2017-06-29T11:43:20.792Z,990.7
2017-06-29T11:44:20.775Z,990.74
2017-06-29T11:45:20.765Z,990.72
2017-06-29T11:46:20.749Z,990.72
2017-06-29T11:47:20.734Z,990.69
2017-06-29T11:48:20.732Z,990.78
2017-06-29T11:49:20.714Z,990.81
2017-06-29T11:50:20.700Z,990.76
2017-06-29T11:51:20.689Z,990.79
2017-06-29T11:52:20.674Z,990.82
2017-06-29T11:53:20.659Z,990.83
2017-06-29T11:54:20.649Z,990.76
2017-06-29T11:55:20.638Z,990.9
2017-06-29T11:56:20.625Z,990.86
2017-06-29T11:57:20.612Z,990.87
2017-06-29T11:58:20.596Z,990.91
2017-06-29T11:59:20.590Z,990.85
2017-06-29T12:00:20.582Z,990.89
2017-06-29T12:01:20.556Z,990.84
2017-06-29T12:02:20.552Z,990.88
2017-06-29T12:03:20.533Z,990.88
2017-06-29T12:04:20.520Z,990.9
2017-06-29T12:05:20.511Z,990.89
2017-06-29T12:06:20.495Z,990.9
2017-06-29T12:07:20.479Z,990.89
2017-06-29T12:08:20.470Z,990.9
2017-06-29T12:09:20.459Z,990.9
2017-06-29T12:10:20.440Z,990.88
2017-06-29T12:11:20.429Z,990.9
2017-06-29T12:12:20.420Z,990.88
2017-06-29T12:13:20.404Z,990.88
2017-06-29T12:14:20.389Z,990.88
2017-06-29T12:15:20.378Z,990.92
2017-06-29T12:16:20.364Z,990.94
2017-06-29T12:17:20.358Z,990.94
2017-06-29T12:18:20.339Z,990.96
2017-06-29T12:19:20.329Z,990.94
2017-06-29T12:20:20.309Z,991.02
2017-06-29T12:21:20.300Z,991.01
2017-06-29T12:22:20.281Z,991
2017-06-29T12:23:20.271Z,991.09
2017-06-29T12:24:20.255Z,991.01
2017-06-29T12:25:20.243Z,991.04
2017-06-29T12:26:20.229Z,991.09
2017-06-29T12:27:20.223Z,991.04
2017-06-29T12:28:20.207Z,991.09
2017-06-29T12:29:20.190Z,991.04
2017-06-29T12:30:20.174Z,991.1